createdAt,value
2023-04-20T00:03:36.276Z,100528.28
2023-04-20T00:06:11.500Z,100584.38
2023-04-20T00:08:40.456Z,100571.56
2023-04-20T00:11:07.444Z,100573.16
2023-04-20T00:16:18.170Z,100567.88
2023-04-20T00:21:37.559Z,100536.69
2023-04-20T00:26:48.391Z,100555.84
2023-04-20T00:29:15.917Z,100554.19
2023-04-20T00:31:44.399Z,100508.47
2023-04-20T00:34:14.054Z,100549.22
2023-04-20T00:36:45.609Z,100550.19
2023-04-20T00:39:24.106Z,100541.44
2023-04-20T00:41:52.328Z,100542.50
2023-04-20T00:44:21.721Z,100531.50
2023-04-20T00:46:50.700Z,100540.09
2023-04-20T00:49:19.217Z,100527.84
2023-04-20T00:51:46.611Z,100523.28
2023-04-20T00:54:13.566Z,100537.38
2023-04-20T00:56:47.564Z,100522.84
2023-04-20T00:59:14.300Z,100508.31
2023-04-20T01:01:43.867Z,100516.25
2023-04-20T01:04:21.114Z,100512.03
2023-04-20T01:06:49.256Z,100510.19
2023-04-20T01:09:19.975Z,100501.59
2023-04-20T01:11:46.776Z,100500.88
2023-04-20T01:14:13.750Z,100490.53
2023-04-20T01:16:40.577Z,100494.06
2023-04-20T01:19:07.517Z,100483.66
2023-04-20T01:21:36.361Z,100437.06
2023-04-20T01:24:05.707Z,100481.00
2023-04-20T01:26:36.176Z,100443.09
2023-04-20T01:29:05.146Z,100480.22
2023-04-20T01:31:32.457Z,100472.44
2023-04-20T01:34:00.350Z,100452.63
2023-04-20T01:36:34.543Z,100464.56
2023-04-20T01:39:05.745Z,100462.78
2023-04-20T01:41:33.721Z,100471.47
2023-04-20T01:44:06.172Z,100467.13
2023-04-20T01:46:33.010Z,100458.91
2023-04-20T01:49:07.634Z,100457.84
2023-04-20T01:51:42.251Z,100445.47
2023-04-20T01:54:13.827Z,100457.34
2023-04-20T01:56:55.530Z,100440.00
2023-04-20T01:59:26.109Z,100452.88
2023-04-20T02:01:55.617Z,100445.06
2023-04-20T02:04:37.812Z,100451.19
2023-04-20T02:07:05.393Z,100455.59
2023-04-20T02:09:37.579Z,100358.09
2023-04-20T02:12:12.902Z,100402.09
2023-04-20T02:14:46.997Z,100461.91
2023-04-20T02:17:27.285Z,100418.66
2023-04-20T02:19:58.107Z,100460.22
2023-04-20T02:22:33.727Z,100408.53
2023-04-20T02:25:08.434Z,100443.03
2023-04-20T02:27:38.410Z,100450.72
2023-04-20T02:30:06.743Z,100442.81
2023-04-20T02:32:33.766Z,100430.75
2023-04-20T02:35:03.048Z,100441.94
2023-04-20T02:37:31.291Z,100434.91
2023-04-20T02:40:05.691Z,100444.47
2023-04-20T02:42:37.163Z,100428.94
2023-04-20T02:45:05.586Z,100384.06
2023-04-20T02:47:33.837Z,100405.53
2023-04-20T02:50:02.841Z,100443.63
2023-04-20T02:55:14.571Z,100433.84
2023-04-20T02:57:41.165Z,100428.53
2023-04-20T03:00:16.363Z,100421.59
2023-04-20T03:02:51.540Z,100431.19
2023-04-20T03:05:25.383Z,100433.03
2023-04-20T03:07:52.245Z,100428.78
2023-04-20T03:10:27.362Z,100409.88
2023-04-20T03:12:55.781Z,100406.34
2023-04-20T03:15:26.027Z,100426.13
2023-04-20T03:17:56.850Z,100429.50
2023-04-20T03:20:26.277Z,100429.50
2023-04-20T03:25:52.252Z,100429.50
2023-04-20T03:28:28.489Z,100394.34
2023-04-20T03:30:59.112Z,100431.63
2023-04-20T03:33:33.019Z,100423.78
2023-04-20T03:36:01.152Z,100406.50
2023-04-20T03:38:31.302Z,100428.94
2023-04-20T03:40:58.339Z,100391.91
2023-04-20T03:43:30.250Z,100429.22
2023-04-20T03:45:59.197Z,100391.41
2023-04-20T03:48:29.233Z,100421.63
2023-04-20T03:56:31.244Z,100406.13
2023-04-20T03:59:02.167Z,100414.78
2023-04-20T04:01:29.111Z,100408.81
2023-04-20T04:03:57.443Z,100411.44
2023-04-20T04:09:40.025Z,100407.03
2023-04-20T04:12:08.619Z,100363.00
2023-04-20T04:14:38.672Z,100379.44
2023-04-20T04:17:05.747Z,100418.47
2023-04-20T04:19:37.616Z,100374.41
2023-04-20T04:22:05.089Z,100415.81
2023-04-20T04:24:33.505Z,100397.50
2023-04-20T04:27:05.500Z,100398.47
2023-04-20T04:29:36.280Z,100408.22
2023-04-20T04:32:06.477Z,100391.97
2023-04-20T04:35:28.280Z,100412.78
2023-04-20T04:37:56.452Z,100410.84
2023-04-20T04:43:16.686Z,100396.28
2023-04-20T04:45:44.696Z,100403.38
2023-04-20T04:48:15.404Z,100374.91
2023-04-20T04:50:46.795Z,100361.97
2023-04-20T04:56:05.056Z,100341.31
2023-04-20T04:58:44.481Z,100351.84
2023-04-20T05:04:15.396Z,100397.75
2023-04-20T05:09:34.220Z,100396.03
2023-04-20T05:15:07.409Z,100385.66
2023-04-20T05:17:39.359Z,100392.53
2023-04-20T05:20:12.768Z,100291.75
2023-04-20T05:23:15.896Z,100398.53
2023-04-20T05:25:48.884Z,100331.31
2023-04-20T05:28:28.000Z,100363.22
2023-04-20T05:31:16.280Z,100320.03
2023-04-20T05:33:45.924Z,100362.97
2023-04-20T05:55:26.063Z,100373.78
2023-04-20T05:57:56.058Z,100337.38
2023-04-20T06:00:34.363Z,100409.72
2023-04-20T06:03:04.323Z,100358.84
2023-04-20T06:05:39.645Z,100406.34
2023-04-20T06:10:53.797Z,100375.91
2023-04-20T06:13:28.380Z,100379.28
2023-04-20T06:15:56.269Z,100411.78
2023-04-20T06:21:16.532Z,100348.47
2023-04-20T06:23:46.306Z,100373.34
2023-04-20T06:26:22.471Z,100321.50
2023-04-20T06:28:55.625Z,100413.84
2023-04-20T06:31:28.328Z,100369.06
2023-04-20T06:33:57.119Z,100380.31
2023-04-20T06:36:30.650Z,100331.13
2023-04-20T06:38:58.977Z,100411.38
2023-04-20T06:41:27.549Z,100379.50
2023-04-20T06:46:51.108Z,100407.69
2023-04-20T06:49:20.505Z,100325.28
2023-04-20T06:51:48.553Z,100401.28
2023-04-20T06:54:21.249Z,100400.25
2023-04-20T07:02:34.194Z,100354.09
2023-04-20T07:05:14.774Z,100386.72
2023-04-20T07:07:42.127Z,100378.91
2023-04-20T07:10:12.687Z,100382.53
2023-04-20T07:12:45.033Z,100379.16
2023-04-20T07:15:18.329Z,100384.63
2023-04-20T07:17:52.565Z,100377.28
2023-04-20T07:20:21.869Z,100390.44
2023-04-20T07:22:53.458Z,100383.25
2023-04-20T07:25:23.703Z,100396.75
2023-04-20T07:30:37.877Z,100395.28
2023-04-20T07:36:20.068Z,100395.06
2023-04-20T07:38:50.435Z,100403.66
2023-04-20T07:41:24.984Z,100341.34
2023-04-20T07:43:52.062Z,100348.75
2023-04-20T07:46:26.966Z,100345.94
2023-04-20T07:48:59.949Z,100396.25
2023-04-20T07:54:14.287Z,100411.78
2023-04-20T07:56:42.274Z,100405.53
2023-04-20T07:59:22.526Z,100406.34
2023-04-20T08:02:11.695Z,100390.56
2023-04-20T08:04:46.071Z,100399.00
2023-04-20T08:07:15.841Z,100323.88
2023-04-20T08:09:55.421Z,100381.34
2023-04-20T08:12:42.611Z,100361.88
2023-04-20T08:15:13.071Z,100343.16
2023-04-20T08:17:44.586Z,100371.50
2023-04-20T08:20:17.845Z,100391.22
2023-04-20T08:22:50.119Z,100366.88
2023-04-20T08:25:21.002Z,100356.16
2023-04-20T08:28:32.937Z,100383.69
2023-04-20T08:31:08.473Z,100330.22
2023-04-20T08:33:40.933Z,100387.41
2023-04-20T08:36:07.778Z,100312.31
2023-04-20T08:38:45.005Z,100292.25
2023-04-20T08:44:07.680Z,100263.31
2023-04-20T08:47:12.266Z,100359.38
2023-04-20T08:53:07.063Z,100365.72
2023-04-20T09:14:12.153Z,100358.72
2023-04-20T09:22:54.351Z,100286.53
2023-04-20T09:25:34.151Z,100291.19
2023-04-20T09:28:07.548Z,100240.03
2023-04-20T09:30:51.824Z,100329.97
2023-04-20T09:33:20.410Z,100279.09
2023-04-20T09:38:34.713Z,100323.19
2023-04-20T09:43:45.859Z,100255.78
2023-04-20T09:46:22.887Z,100235.50
2023-04-20T09:49:06.608Z,100212.22
2023-04-20T09:52:10.020Z,100255.06
2023-04-20T09:54:38.782Z,100298.56
2023-04-20T09:59:53.313Z,100232.69
2023-04-20T10:02:36.409Z,100224.59
2023-04-20T10:08:11.695Z,100275.72
2023-04-20T10:16:40.772Z,100210.94
2023-04-20T10:19:21.792Z,100207.03
2023-04-20T10:22:05.913Z,100260.34
2023-04-20T10:30:32.994Z,100262.97
2023-04-20T10:36:05.930Z,100248.97
2023-04-20T10:38:51.458Z,100241.72
2023-04-20T10:41:20.994Z,100237.69
2023-04-20T10:43:48.035Z,100220.88
2023-04-20T10:46:26.190Z,100150.63
2023-04-20T10:49:14.674Z,100192.13
2023-04-20T10:51:56.926Z,100188.59
2023-04-20T10:54:35.172Z,100224.66
2023-04-20T10:57:03.510Z,100226.94
2023-04-20T11:02:31.875Z,100223.78
2023-04-20T11:05:10.771Z,100189.88
2023-04-20T11:08:11.058Z,100177.34
2023-04-20T11:10:41.057Z,100218.25
2023-04-20T11:13:29.777Z,100211.22
2023-04-20T11:16:26.225Z,100159.53
2023-04-20T11:19:10.445Z,100163.94
2023-04-20T11:24:41.414Z,100165.56
2023-04-20T11:30:02.732Z,100202.25
2023-04-20T11:33:00.612Z,100190.72
2023-04-20T11:36:04.581Z,100190.31
2023-04-20T11:47:03.451Z,100169.66
2023-04-20T11:49:31.067Z,100123.22
2023-04-20T11:54:55.520Z,100165.44
2023-04-20T11:57:51.761Z,100147.94
2023-04-20T12:00:35.198Z,100161.81
2023-04-20T12:03:24.745Z,100142.72
2023-04-20T12:08:33.615Z,100120.69
2023-04-20T12:11:02.639Z,100163.72
2023-04-20T12:13:32.816Z,100098.47
2023-04-20T12:16:01.128Z,100107.88
2023-04-20T12:18:32.327Z,100084.44
2023-04-20T12:23:47.565Z,100108.91
2023-04-20T12:28:59.004Z,100082.03
2023-04-20T12:31:30.998Z,100134.91
2023-04-20T12:33:59.404Z,100136.13
2023-04-20T12:36:47.140Z,100085.16
2023-04-20T12:48:04.646Z,100132.50
2023-04-20T12:53:20.337Z,100128.00
2023-04-20T12:55:55.071Z,100050.59
2023-04-20T12:58:28.577Z,100106.59
2023-04-20T13:13:04.594Z,100138.44
2023-04-20T13:15:48.808Z,100142.31
2023-04-20T13:18:33.759Z,100143.19
2023-04-20T13:21:05.116Z,100149.44
2023-04-20T13:23:36.474Z,100111.31
2023-04-20T13:28:58.830Z,100120.66
2023-04-20T13:32:01.840Z,100136.06
2023-04-20T13:40:47.727Z,100094.38
2023-04-20T13:55:09.837Z,100098.91
2023-04-20T13:57:41.909Z,100147.44
2023-04-20T14:00:18.928Z,100154.72
2023-04-20T14:05:44.663Z,100161.56
2023-04-20T14:08:29.854Z,100113.34
2023-04-20T14:10:59.604Z,100125.00
2023-04-20T14:13:31.374Z,100131.06
2023-04-20T14:16:00.653Z,100123.91
2023-04-20T14:18:32.448Z,100153.09
2023-04-20T14:21:08.867Z,100086.06
2023-04-20T14:23:39.080Z,100133.88
2023-04-20T14:28:59.363Z,100090.34
2023-04-20T14:31:29.118Z,100091.59
2023-04-20T14:34:00.079Z,100140.38
2023-04-20T14:36:32.319Z,100121.22
2023-04-20T14:39:00.687Z,100055.03
2023-04-20T14:41:45.240Z,100126.13
2023-04-20T14:47:06.591Z,100127.81
2023-04-20T14:49:38.793Z,100099.94
2023-04-20T14:52:07.614Z,100111.41
2023-04-20T14:54:44.508Z,100119.00
2023-04-20T14:57:15.430Z,100098.63
2023-04-20T14:59:43.431Z,100135.91
2023-04-20T15:04:58.018Z,100092.44
2023-04-20T15:07:31.668Z,100142.44
2023-04-20T15:09:58.680Z,100150.38
2023-04-20T15:15:10.674Z,100102.81
2023-04-20T15:17:41.319Z,100099.34
2023-04-20T15:20:21.513Z,100063.16
2023-04-20T15:22:58.651Z,100143.66
2023-04-20T15:25:31.822Z,100040.34
2023-04-20T15:28:09.732Z,100081.63
2023-04-20T15:30:41.516Z,100131.22
2023-04-20T15:39:01.448Z,100114.94
2023-04-20T15:58:14.281Z,100102.94
2023-04-20T16:01:08.806Z,100154.25
2023-04-20T16:06:29.018Z,100116.78
2023-04-20T16:09:02.750Z,100090.22
2023-04-20T16:14:41.141Z,100106.00
2023-04-20T16:17:30.891Z,100170.34
2023-04-20T16:20:07.985Z,100102.97
2023-04-20T16:22:53.028Z,100170.53
2023-04-20T16:25:31.470Z,100122.00
2023-04-20T16:28:11.107Z,100174.56
2023-04-20T16:30:41.014Z,100174.63
2023-04-20T16:33:35.955Z,100179.31
2023-04-20T16:36:06.674Z,100182.28
2023-04-20T16:38:36.665Z,100184.16
2023-04-20T16:41:12.884Z,100096.63
2023-04-20T16:43:53.281Z,100094.28
2023-04-20T16:46:33.926Z,100155.84
2023-04-20T16:49:02.216Z,100163.72
2023-04-20T16:51:30.734Z,100123.56
2023-04-20T16:54:02.117Z,100174.28
2023-04-20T16:56:44.698Z,100135.72
2023-04-20T16:59:16.640Z,100165.94
2023-04-20T17:01:50.644Z,100121.09
2023-04-20T17:04:18.733Z,100079.88
2023-04-20T17:06:51.258Z,100167.25
2023-04-20T17:12:19.818Z,100160.09
2023-04-20T17:17:34.738Z,100132.06
2023-04-20T17:20:02.529Z,100159.53
2023-04-20T17:25:33.198Z,100118.88
2023-04-20T17:28:02.827Z,100126.22
2023-04-20T17:30:31.474Z,100143.44
2023-04-20T17:33:03.115Z,100104.91
2023-04-20T17:38:21.986Z,100154.41
2023-04-20T17:40:51.816Z,100159.81
2023-04-20T17:46:04.103Z,100060.28
2023-04-20T17:48:41.405Z,100169.47
2023-04-20T17:51:25.133Z,100164.19
2023-04-20T17:53:53.931Z,100164.25
2023-04-20T17:56:21.245Z,100167.03
2023-04-20T17:59:01.070Z,100167.25
2023-04-20T18:10:39.399Z,100192.16
2023-04-20T18:16:35.483Z,100198.34
2023-04-20T18:27:21.643Z,100177.16
2023-04-20T18:30:19.822Z,100181.75
2023-04-20T18:33:20.283Z,100165.63
2023-04-20T18:39:00.261Z,100198.25
2023-04-20T18:41:42.347Z,100205.47
2023-04-20T18:44:11.138Z,100209.56
2023-04-20T18:54:07.174Z,100233.41
2023-04-20T18:56:43.817Z,100234.81
2023-04-20T18:59:26.548Z,100228.06
2023-04-20T19:05:20.403Z,100165.97
2023-04-20T19:07:53.755Z,100199.63
2023-04-20T19:10:24.993Z,100192.81
2023-04-20T19:12:54.072Z,100174.78
2023-04-20T19:15:46.797Z,100235.88
2023-04-20T19:18:17.722Z,100229.66
2023-04-20T19:20:50.203Z,100237.41
2023-04-20T19:56:08.792Z,100231.38
2023-04-20T19:58:54.017Z,100219.22
2023-04-20T20:01:21.728Z,100208.03
2023-04-20T20:10:25.977Z,100190.38
2023-04-20T20:22:09.110Z,100209.47
2023-04-20T20:24:49.064Z,100239.28
2023-04-20T20:30:28.228Z,100191.22
2023-04-20T20:36:11.030Z,100203.47
2023-04-20T20:38:50.239Z,100206.78
2023-04-20T20:41:25.504Z,100205.13
2023-04-20T20:55:13.397Z,100181.66
2023-04-20T21:00:44.879Z,100195.50
2023-04-20T21:06:46.107Z,100164.31
2023-04-20T21:09:40.022Z,100171.72
2023-04-20T21:12:12.100Z,100166.66
2023-04-20T21:17:42.084Z,100193.88
2023-04-20T21:26:08.209Z,100178.22
2023-04-20T21:33:59.654Z,100227.97
2023-04-20T21:36:28.068Z,100203.63
2023-04-20T21:38:57.356Z,100215.78
2023-04-20T21:46:58.631Z,100190.56
2023-04-20T21:49:40.190Z,100200.69
2023-04-20T21:52:33.666Z,100192.63
2023-04-20T21:57:51.829Z,100167.00
2023-04-20T22:00:50.314Z,100160.88
2023-04-20T22:03:20.141Z,100145.19
2023-04-20T22:05:50.006Z,100149.53
2023-04-20T22:08:22.462Z,100160.94
2023-04-20T22:10:53.268Z,100175.88
2023-04-20T22:13:21.228Z,100165.38
2023-04-20T22:15:53.552Z,100177.88
2023-04-20T22:18:48.921Z,100179.94
2023-04-20T22:21:15.750Z,100184.41
2023-04-20T22:23:42.472Z,100155.78
2023-04-20T22:26:20.604Z,100182.44
2023-04-20T22:28:50.597Z,100180.84
2023-04-20T22:31:18.556Z,100178.13
2023-04-20T22:33:45.572Z,100168.47
2023-04-20T22:36:12.526Z,100174.47
2023-04-20T22:38:47.507Z,100169.94
2023-04-20T22:41:17.441Z,100149.59
2023-04-20T22:43:47.639Z,100159.25
2023-04-20T22:46:15.732Z,100151.56
2023-04-20T22:48:43.236Z,100156.00
2023-04-20T22:51:17.048Z,100141.22
2023-04-20T22:53:51.152Z,100154.38
2023-04-20T22:56:27.622Z,100151.75
2023-04-20T22:58:58.058Z,100145.72
2023-04-20T23:01:29.782Z,100142.44
2023-04-20T23:04:29.153Z,100155.44
2023-04-20T23:07:00.072Z,100150.31
2023-04-20T23:09:36.990Z,100156.06
2023-04-20T23:12:06.659Z,100149.03
2023-04-20T23:14:34.434Z,100144.72
2023-04-20T23:17:02.847Z,100111.81
2023-04-20T23:19:34.510Z,100134.41
2023-04-20T23:22:10.060Z,100149.84
2023-04-20T23:24:41.737Z,100139.63
2023-04-20T23:27:12.991Z,100119.97
2023-04-20T23:29:40.527Z,100137.22
2023-04-20T23:32:09.067Z,100156.09
2023-04-20T23:34:37.050Z,100146.50
2023-04-20T23:37:05.274Z,100154.13
2023-04-20T23:39:41.637Z,100129.94
2023-04-20T23:42:09.277Z,100158.34
2023-04-20T23:44:37.106Z,100155.50
2023-04-20T23:47:06.469Z,100141.63
2023-04-20T23:49:37.122Z,100131.56
2023-04-20T23:54:44.886Z,100157.53
